sensor_id;sensor_type;location;lat;lon;timestamp;temperature;humidity
64918;HTU21D;52176;44.858;38.372;2022-09-16T00:01:12;21.81;65.35
64918;HTU21D;52176;44.858;38.372;2022-09-16T00:03:38;21.81;65.39
64918;HTU21D;52176;44.858;38.372;2022-09-16T00:06:05;21.82;65.49
64918;HTU21D;52176;44.858;38.372;2022-09-16T00:08:31;21.81;65.50
64918;HTU21D;52176;44.858;38.372;2022-09-16T00:11:00;21.83;65.45
64918;HTU21D;52176;44.858;38.372;2022-09-16T00:13:26;21.84;65.40
64918;HTU21D;52176;44.858;38.372;2022-09-16T00:15:52;21.87;65.28
64918;HTU21D;52176;44.858;38.372;2022-09-16T00:18:18;21.91;65.27
64918;HTU21D;52176;44.858;38.372;2022-09-16T00:20:45;21.91;65.30
64918;HTU21D;52176;44.858;38.372;2022-09-16T00:23:11;21.92;65.17
64918;HTU21D;52176;44.858;38.372;2022-09-16T00:25:37;21.96;65.12
64918;HTU21D;52176;44.858;38.372;2022-09-16T00:28:03;21.99;65.06
64918;HTU21D;52176;44.858;38.372;2022-09-16T00:30:29;22.03;64.87
64918;HTU21D;52176;44.858;38.372;2022-09-16T00:32:54;22.04;64.82
64918;HTU21D;52176;44.858;38.372;2022-09-16T00:35:20;22.07;64.79
64918;HTU21D;52176;44.858;38.372;2022-09-16T00:37:47;22.07;64.88
64918;HTU21D;52176;44.858;38.372;2022-09-16T00:40:12;22.06;65.00
64918;HTU21D;52176;44.858;38.372;2022-09-16T00:42:38;22.04;65.03
64918;HTU21D;52176;44.858;38.372;2022-09-16T00:45:14;22.05;65.04
64918;HTU21D;52176;44.858;38.372;2022-09-16T00:47:46;22.07;64.92
64918;HTU21D;52176;44.858;38.372;2022-09-16T00:50:21;22.09;64.92
64918;HTU21D;52176;44.858;38.372;2022-09-16T00:52:48;22.08;64.94
64918;HTU21D;52176;44.858;38.372;2022-09-16T00:55:17;22.08;64.82
64918;HTU21D;52176;44.858;38.372;2022-09-16T00:57:44;22.08;64.86
64918;HTU21D;52176;44.858;38.372;2022-09-16T01:00:10;22.10;64.90
64918;HTU21D;52176;44.858;38.372;2022-09-16T01:02:38;22.09;64.69
64918;HTU21D;52176;44.858;38.372;2022-09-16T01:05:06;22.12;64.55
64918;HTU21D;52176;44.858;38.372;2022-09-16T01:07:41;22.13;64.50
64918;HTU21D;52176;44.858;38.372;2022-09-16T01:10:07;22.13;64.50
64918;HTU21D;52176;44.858;38.372;2022-09-16T01:12:33;22.12;64.63
64918;HTU21D;52176;44.858;38.372;2022-09-16T01:14:59;22.11;64.74
64918;HTU21D;52176;44.858;38.372;2022-09-16T01:17:27;22.09;64.82
64918;HTU21D;52176;44.858;38.372;2022-09-16T01:35:09;22.09;64.74
64918;HTU21D;52176;44.858;38.372;2022-09-16T01:45:14;22.16;65.10
64918;HTU21D;52176;44.858;38.372;2022-09-16T01:52:36;22.17;65.45
64918;HTU21D;52176;44.858;38.372;2022-09-16T01:55:05;22.18;65.51
64918;HTU21D;52176;44.858;38.372;2022-09-16T02:00:02;22.18;65.85
64918;HTU21D;52176;44.858;38.372;2022-09-16T02:04:56;22.17;66.02
64918;HTU21D;52176;44.858;38.372;2022-09-16T02:07:28;22.17;66.10
64918;HTU21D;52176;44.858;38.372;2022-09-16T02:10:00;22.19;65.98
64918;HTU21D;52176;44.858;38.372;2022-09-16T02:12:33;22.20;65.95
64918;HTU21D;52176;44.858;38.372;2022-09-16T02:15:01;22.21;65.87
64918;HTU21D;52176;44.858;38.372;2022-09-16T02:17:29;22.24;65.73
64918;HTU21D;52176;44.858;38.372;2022-09-16T02:20:04;22.27;65.73
64918;HTU21D;52176;44.858;38.372;2022-09-16T02:22:32;22.29;65.79
64918;HTU21D;52176;44.858;38.372;2022-09-16T02:24:59;22.29;65.81
64918;HTU21D;52176;44.858;38.372;2022-09-16T02:27:26;22.31;65.82
64918;HTU21D;52176;44.858;38.372;2022-09-16T02:29:55;22.29;66.01
64918;HTU21D;52176;44.858;38.372;2022-09-16T02:32:22;22.28;65.98
64918;HTU21D;52176;44.858;38.372;2022-09-16T02:34:50;22.27;65.95
64918;HTU21D;52176;44.858;38.372;2022-09-16T02:39:43;22.20;65.94
64918;HTU21D;52176;44.858;38.372;2022-09-16T02:42:11;22.17;65.92
64918;HTU21D;52176;44.858;38.372;2022-09-16T02:44:36;22.17;65.95
64918;HTU21D;52176;44.858;38.372;2022-09-16T02:47:14;22.14;65.95
64918;HTU21D;52176;44.858;38.372;2022-09-16T02:52:11;22.10;66.25
64918;HTU21D;52176;44.858;38.372;2022-09-16T02:57:16;22.08;66.60
64918;HTU21D;52176;44.858;38.372;2022-09-16T02:59:42;22.07;66.75
64918;HTU21D;52176;44.858;38.372;2022-09-16T03:02:09;22.07;66.82
64918;HTU21D;52176;44.858;38.372;2022-09-16T03:04:35;22.06;67.10
64918;HTU21D;52176;44.858;38.372;2022-09-16T03:07:03;22.03;67.25
64918;HTU21D;52176;44.858;38.372;2022-09-16T03:09:30;22.04;67.39
64918;HTU21D;52176;44.858;38.372;2022-09-16T03:14:27;22.04;67.59
64918;HTU21D;52176;44.858;38.372;2022-09-16T03:22:05;22.05;67.99
64918;HTU21D;52176;44.858;38.372;2022-09-16T03:27:04;22.13;67.78
64918;HTU21D;52176;44.858;38.372;2022-09-16T03:29:40;22.14;67.81
64918;HTU21D;52176;44.858;38.372;2022-09-16T03:34:48;22.22;67.56
64918;HTU21D;52176;44.858;38.372;2022-09-16T03:37:17;22.25;67.48
64918;HTU21D;52176;44.858;38.372;2022-09-16T03:39:47;22.26;67.49
64918;HTU21D;52176;44.858;38.372;2022-09-16T03:42:14;22.31;67.53
64918;HTU21D;52176;44.858;38.372;2022-09-16T03:44:41;22.31;67.68
64918;HTU21D;52176;44.858;38.372;2022-09-16T03:47:07;22.35;67.80
64918;HTU21D;52176;44.858;38.372;2022-09-16T03:49:34;22.37;67.91
64918;HTU21D;52176;44.858;38.372;2022-09-16T03:52:00;22.42;68.04
64918;HTU21D;52176;44.858;38.372;2022-09-16T03:54:26;22.49;68.07
64918;HTU21D;52176;44.858;38.372;2022-09-16T03:56:52;22.55;68.00
64918;HTU21D;52176;44.858;38.372;2022-09-16T03:59:17;22.64;67.94
64918;HTU21D;52176;44.858;38.372;2022-09-16T04:01:43;22.73;67.78
64918;HTU21D;52176;44.858;38.372;2022-09-16T04:04:09;22.85;67.55
64918;HTU21D;52176;44.858;38.372;2022-09-16T04:06:36;23.00;67.20
64918;HTU21D;52176;44.858;38.372;2022-09-16T04:09:03;23.15;66.93
64918;HTU21D;52176;44.858;38.372;2022-09-16T04:11:29;23.23;66.67
64918;HTU21D;52176;44.858;38.372;2022-09-16T04:13:56;23.26;66.56
64918;HTU21D;52176;44.858;38.372;2022-09-16T04:16:23;23.23;66.41
64918;HTU21D;52176;44.858;38.372;2022-09-16T04:18:49;23.22;66.43
64918;HTU21D;52176;44.858;38.372;2022-09-16T04:21:15;23.18;66.54
64918;HTU21D;52176;44.858;38.372;2022-09-16T04:23:41;23.14;66.53
64918;HTU21D;52176;44.858;38.372;2022-09-16T04:26:07;23.11;66.49
64918;HTU21D;52176;44.858;38.372;2022-09-16T04:28:32;23.11;66.53
64918;HTU21D;52176;44.858;38.372;2022-09-16T04:31:02;23.10;66.48
64918;HTU21D;52176;44.858;38.372;2022-09-16T04:33:28;23.17;66.44
64918;HTU21D;52176;44.858;38.372;2022-09-16T04:36:00;23.36;66.27
64918;HTU21D;52176;44.858;38.372;2022-09-16T04:38:26;23.62;65.60
64918;HTU21D;52176;44.858;38.372;2022-09-16T04:40:52;23.85;64.96
64918;HTU21D;52176;44.858;38.372;2022-09-16T04:43:23;23.95;64.46
64918;HTU21D;52176;44.858;38.372;2022-09-16T04:45:50;23.94;64.40
64918;HTU21D;52176;44.858;38.372;2022-09-16T04:48:16;23.94;64.37
64918;HTU21D;52176;44.858;38.372;2022-09-16T04:50:42;23.95;64.36
64918;HTU21D;52176;44.858;38.372;2022-09-16T04:53:08;24.00;64.07
64918;HTU21D;52176;44.858;38.372;2022-09-16T04:55:34;24.06;63.90
64918;HTU21D;52176;44.858;38.372;2022-09-16T04:58:01;24.08;63.56
64918;HTU21D;52176;44.858;38.372;2022-09-16T05:00:27;24.06;63.40
64918;HTU21D;52176;44.858;38.372;2022-09-16T05:02:53;24.08;63.49
64918;HTU21D;52176;44.858;38.372;2022-09-16T05:05:20;24.11;63.21
64918;HTU21D;52176;44.858;38.372;2022-09-16T05:07:46;24.14;62.93
64918;HTU21D;52176;44.858;38.372;2022-09-16T05:10:12;24.18;62.95
64918;HTU21D;52176;44.858;38.372;2022-09-16T05:12:38;24.18;63.05
64918;HTU21D;52176;44.858;38.372;2022-09-16T05:15:05;24.20;63.19
64918;HTU21D;52176;44.858;38.372;2022-09-16T05:17:32;24.14;63.11
64918;HTU21D;52176;44.858;38.372;2022-09-16T05:19:58;24.11;62.87
64918;HTU21D;52176;44.858;38.372;2022-09-16T05:22:24;24.04;62.63
64918;HTU21D;52176;44.858;38.372;2022-09-16T05:24:50;23.99;62.37
64918;HTU21D;52176;44.858;38.372;2022-09-16T05:27:16;23.99;62.67
64918;HTU21D;52176;44.858;38.372;2022-09-16T05:29:42;23.99;62.65
64918;HTU21D;52176;44.858;38.372;2022-09-16T05:32:08;24.00;62.60
64918;HTU21D;52176;44.858;38.372;2022-09-16T05:34:34;24.06;62.59
64918;HTU21D;52176;44.858;38.372;2022-09-16T05:37:01;24.11;62.54
64918;HTU21D;52176;44.858;38.372;2022-09-16T05:39:27;24.14;62.57
64918;HTU21D;52176;44.858;38.372;2022-09-16T05:41:58;24.19;62.67
64918;HTU21D;52176;44.858;38.372;2022-09-16T05:44:25;24.24;62.53
64918;HTU21D;52176;44.858;38.372;2022-09-16T05:46:52;24.29;62.44
64918;HTU21D;52176;44.858;38.372;2022-09-16T05:49:18;24.31;62.37
64918;HTU21D;52176;44.858;38.372;2022-09-16T05:51:49;24.31;62.32
64918;HTU21D;52176;44.858;38.372;2022-09-16T05:54:16;24.27;62.37
64918;HTU21D;52176;44.858;38.372;2022-09-16T05:56:46;24.25;62.53
64918;HTU21D;52176;44.858;38.372;2022-09-16T05:59:13;24.19;62.56
64918;HTU21D;52176;44.858;38.372;2022-09-16T06:01:39;24.18;62.78
64918;HTU21D;52176;44.858;38.372;2022-09-16T06:04:09;24.14;62.93
64918;HTU21D;52176;44.858;38.372;2022-09-16T06:06:40;24.11;62.91
64918;HTU21D;52176;44.858;38.372;2022-09-16T06:09:10;24.05;62.87
64918;HTU21D;52176;44.858;38.372;2022-09-16T06:11:39;24.01;62.82
64918;HTU21D;52176;44.858;38.372;2022-09-16T06:14:09;23.99;63.02
64918;HTU21D;52176;44.858;38.372;2022-09-16T06:16:36;23.99;63.13
64918;HTU21D;52176;44.858;38.372;2022-09-16T06:19:05;24.03;63.13
64918;HTU21D;52176;44.858;38.372;2022-09-16T06:21:32;24.12;62.96
64918;HTU21D;52176;44.858;38.372;2022-09-16T06:23:57;24.17;62.75
64918;HTU21D;52176;44.858;38.372;2022-09-16T06:26:25;24.23;62.60
64918;HTU21D;52176;44.858;38.372;2022-09-16T06:28:52;24.30;62.48
64918;HTU21D;52176;44.858;38.372;2022-09-16T06:31:26;24.38;62.19
64918;HTU21D;52176;44.858;38.372;2022-09-16T06:33:53;24.48;61.74
64918;HTU21D;52176;44.858;38.372;2022-09-16T06:36:25;24.66;61.50
64918;HTU21D;52176;44.858;38.372;2022-09-16T06:38:51;24.88;61.12
64918;HTU21D;52176;44.858;38.372;2022-09-16T06:41:18;25.03;60.76
64918;HTU21D;52176;44.858;38.372;2022-09-16T06:43:45;25.16;60.51
64918;HTU21D;52176;44.858;38.372;2022-09-16T06:46:23;25.31;59.90
64918;HTU21D;52176;44.858;38.372;2022-09-16T06:48:51;25.51;59.44
64918;HTU21D;52176;44.858;38.372;2022-09-16T06:51:23;25.83;58.71
64918;HTU21D;52176;44.858;38.372;2022-09-16T06:53:50;26.07;58.27
64918;HTU21D;52176;44.858;38.372;2022-09-16T06:56:19;26.25;57.61
64918;HTU21D;52176;44.858;38.372;2022-09-16T06:58:48;26.35;57.33
64918;HTU21D;52176;44.858;38.372;2022-09-16T07:01:17;26.33;57.40
64918;HTU21D;52176;44.858;38.372;2022-09-16T07:03:46;26.25;57.45
64918;HTU21D;52176;44.858;38.372;2022-09-16T07:06:13;26.17;57.55
64918;HTU21D;52176;44.858;38.372;2022-09-16T07:08:40;26.02;57.33
64918;HTU21D;52176;44.858;38.372;2022-09-16T07:13:37;25.84;57.67
64918;HTU21D;52176;44.858;38.372;2022-09-16T07:16:09;25.89;57.19
64918;HTU21D;52176;44.858;38.372;2022-09-16T07:18:36;26.09;56.91
64918;HTU21D;52176;44.858;38.372;2022-09-16T07:21:15;26.15;56.65
64918;HTU21D;52176;44.858;38.372;2022-09-16T07:23:42;26.11;56.95
64918;HTU21D;52176;44.858;38.372;2022-09-16T07:28:37;26.13;57.00
64918;HTU21D;52176;44.858;38.372;2022-09-16T07:31:13;26.19;56.81
64918;HTU21D;52176;44.858;38.372;2022-09-16T07:33:42;26.32;56.63
64918;HTU21D;52176;44.858;38.372;2022-09-16T07:36:10;26.66;56.26
64918;HTU21D;52176;44.858;38.372;2022-09-16T07:38:36;27.06;55.23
64918;HTU21D;52176;44.858;38.372;2022-09-16T07:41:06;27.27;54.66
64918;HTU21D;52176;44.858;38.372;2022-09-16T07:43:32;27.42;54.31
64918;HTU21D;52176;44.858;38.372;2022-09-16T07:45:58;27.52;53.79
64918;HTU21D;52176;44.858;38.372;2022-09-16T07:48:27;27.53;53.36
64918;HTU21D;52176;44.858;38.372;2022-09-16T07:51:01;27.61;52.68
64918;HTU21D;52176;44.858;38.372;2022-09-16T07:53:28;27.66;52.37
64918;HTU21D;52176;44.858;38.372;2022-09-16T07:55:55;27.72;52.18
64918;HTU21D;52176;44.858;38.372;2022-09-16T07:58:22;27.78;52.01
64918;HTU21D;52176;44.858;38.372;2022-09-16T08:00:48;28.00;50.71
64918;HTU21D;52176;44.858;38.372;2022-09-16T08:03:14;28.08;50.58
64918;HTU21D;52176;44.858;38.372;2022-09-16T08:05:41;28.27;50.05
64918;HTU21D;52176;44.858;38.372;2022-09-16T08:08:07;28.59;49.37
64918;HTU21D;52176;44.858;38.372;2022-09-16T08:10:33;28.73;48.92
64918;HTU21D;52176;44.858;38.372;2022-09-16T08:13:02;29.18;48.16
64918;HTU21D;52176;44.858;38.372;2022-09-16T08:15:28;29.33;47.47
64918;HTU21D;52176;44.858;38.372;2022-09-16T08:17:54;29.44;47.60
64918;HTU21D;52176;44.858;38.372;2022-09-16T08:20:20;29.46;47.47
64918;HTU21D;52176;44.858;38.372;2022-09-16T08:22:46;29.79;47.05
64918;HTU21D;52176;44.858;38.372;2022-09-16T08:25:12;30.39;45.69
64918;HTU21D;52176;44.858;38.372;2022-09-16T08:27:38;30.56;44.95
64918;HTU21D;52176;44.858;38.372;2022-09-16T08:30:05;30.55;44.39
64918;HTU21D;52176;44.858;38.372;2022-09-16T08:32:31;30.37;44.59
64918;HTU21D;52176;44.858;38.372;2022-09-16T08:34:56;30.54;44.12
64918;HTU21D;52176;44.858;38.372;2022-09-16T08:37:23;30.70;43.90
64918;HTU21D;52176;44.858;38.372;2022-09-16T08:39:48;31.11;43.21
64918;HTU21D;52176;44.858;38.372;2022-09-16T08:42:28;31.44;42.55
64918;HTU21D;52176;44.858;38.372;2022-09-16T08:49:55;31.73;41.58
64918;HTU21D;52176;44.858;38.372;2022-09-16T08:52:31;31.67;40.51
64918;HTU21D;52176;44.858;38.372;2022-09-16T08:55:02;31.54;41.00
64918;HTU21D;52176;44.858;38.372;2022-09-16T08:57:33;31.78;40.45
64918;HTU21D;52176;44.858;38.372;2022-09-16T09:00:10;32.08;40.59
64918;HTU21D;52176;44.858;38.372;2022-09-16T09:02:48;32.31;39.69
64918;HTU21D;52176;44.858;38.372;2022-09-16T09:05:39;32.57;38.46
64918;HTU21D;52176;44.858;38.372;2022-09-16T09:08:35;32.77;38.96
64918;HTU21D;52176;44.858;38.372;2022-09-16T09:18:51;33.08;37.89
64918;HTU21D;52176;44.858;38.372;2022-09-16T09:21:30;33.08;38.33
64918;HTU21D;52176;44.858;38.372;2022-09-16T09:26:30;33.59;37.43
64918;HTU21D;52176;44.858;38.372;2022-09-16T09:36:51;33.30;37.69
64918;HTU21D;52176;44.858;38.372;2022-09-16T09:41:59;33.56;37.37
64918;HTU21D;52176;44.858;38.372;2022-09-16T09:47:16;33.80;37.01
64918;HTU21D;52176;44.858;38.372;2022-09-16T09:49:45;33.86;36.77
64918;HTU21D;52176;44.858;38.372;2022-09-16T09:54:50;34.04;36.50
64918;HTU21D;52176;44.858;38.372;2022-09-16T09:57:22;34.16;36.55
64918;HTU21D;52176;44.858;38.372;2022-09-16T09:59:52;34.15;36.19
64918;HTU21D;52176;44.858;38.372;2022-09-16T10:02:21;34.01;35.99
64918;HTU21D;52176;44.858;38.372;2022-09-16T10:04:47;33.96;36.40
64918;HTU21D;52176;44.858;38.372;2022-09-16T10:07:14;34.09;36.14
64918;HTU21D;52176;44.858;38.372;2022-09-16T10:09:47;34.18;36.11
64918;HTU21D;52176;44.858;38.372;2022-09-16T10:12:24;33.73;36.55
64918;HTU21D;52176;44.858;38.372;2022-09-16T10:14:50;33.15;37.28
64918;HTU21D;52176;44.858;38.372;2022-09-16T10:17:16;32.76;37.98
64918;HTU21D;52176;44.858;38.372;2022-09-16T10:19:53;32.43;38.94
64918;HTU21D;52176;44.858;38.372;2022-09-16T10:22:27;32.23;39.65
64918;HTU21D;52176;44.858;38.372;2022-09-16T10:24:55;32.09;40.10
64918;HTU21D;52176;44.858;38.372;2022-09-16T10:32:43;31.63;40.20
64918;HTU21D;52176;44.858;38.372;2022-09-16T10:35:14;31.71;40.67
64918;HTU21D;52176;44.858;38.372;2022-09-16T10:37:45;32.19;39.74
64918;HTU21D;52176;44.858;38.372;2022-09-16T10:40:14;32.45;39.10
64918;HTU21D;52176;44.858;38.372;2022-09-16T10:42:44;32.37;39.04
64918;HTU21D;52176;44.858;38.372;2022-09-16T10:45:24;32.09;39.48
64918;HTU21D;52176;44.858;38.372;2022-09-16T10:47:53;31.64;40.14
64918;HTU21D;52176;44.858;38.372;2022-09-16T10:50:19;31.33;40.95
64918;HTU21D;52176;44.858;38.372;2022-09-16T10:52:46;31.49;40.89
64918;HTU21D;52176;44.858;38.372;2022-09-16T10:57:44;32.01;39.61
64918;HTU21D;52176;44.858;38.372;2022-09-16T11:13:04;32.05;39.59
64918;HTU21D;52176;44.858;38.372;2022-09-16T11:18:20;32.42;39.13
64918;HTU21D;52176;44.858;38.372;2022-09-16T11:26:08;32.56;38.20
64918;HTU21D;52176;44.858;38.372;2022-09-16T11:36:18;31.33;40.04
64918;HTU21D;52176;44.858;38.372;2022-09-16T11:56:51;29.59;43.33
64918;HTU21D;52176;44.858;38.372;2022-09-16T11:59:24;29.45;43.22
64918;HTU21D;52176;44.858;38.372;2022-09-16T12:01:56;29.32;43.22
64918;HTU21D;52176;44.858;38.372;2022-09-16T12:04:37;29.27;43.45
64918;HTU21D;52176;44.858;38.372;2022-09-16T12:09:42;29.04;43.74
64918;HTU21D;52176;44.858;38.372;2022-09-16T12:12:12;28.99;44.20
64918;HTU21D;52176;44.858;38.372;2022-09-16T12:14:43;28.90;44.59
64918;HTU21D;52176;44.858;38.372;2022-09-16T12:17:12;28.76;44.97
64918;HTU21D;52176;44.858;38.372;2022-09-16T12:19:45;28.60;45.20
64918;HTU21D;52176;44.858;38.372;2022-09-16T12:22:18;28.45;45.46
64918;HTU21D;52176;44.858;38.372;2022-09-16T12:24:47;28.35;45.77
64918;HTU21D;52176;44.858;38.372;2022-09-16T12:32:13;28.03;46.66
64918;HTU21D;52176;44.858;38.372;2022-09-16T12:34:41;27.96;46.88
64918;HTU21D;52176;44.858;38.372;2022-09-16T12:39:34;27.83;46.56
64918;HTU21D;52176;44.858;38.372;2022-09-16T12:42:21;27.72;46.75
64918;HTU21D;52176;44.858;38.372;2022-09-16T12:55:41;27.50;47.05
64918;HTU21D;52176;44.858;38.372;2022-09-16T13:00:52;27.67;46.15
64918;HTU21D;52176;44.858;38.372;2022-09-16T13:03:21;27.67;46.08
64918;HTU21D;52176;44.858;38.372;2022-09-16T13:05:48;27.66;46.31
64918;HTU21D;52176;44.858;38.372;2022-09-16T13:08:35;27.63;46.08
64918;HTU21D;52176;44.858;38.372;2022-09-16T13:11:13;27.60;46.09
64918;HTU21D;52176;44.858;38.372;2022-09-16T13:13:45;27.60;46.24
64918;HTU21D;52176;44.858;38.372;2022-09-16T13:16:12;27.61;46.48
64918;HTU21D;52176;44.858;38.372;2022-09-16T13:18:44;27.65;46.73
64918;HTU21D;52176;44.858;38.372;2022-09-16T13:21:12;27.64;46.76
64918;HTU21D;52176;44.858;38.372;2022-09-16T13:23:41;27.56;46.73
64918;HTU21D;52176;44.858;38.372;2022-09-16T13:26:08;27.50;47.02
64918;HTU21D;52176;44.858;38.372;2022-09-16T13:28:38;27.43;47.09
64918;HTU21D;52176;44.858;38.372;2022-09-16T13:33:41;27.41;46.96
64918;HTU21D;52176;44.858;38.372;2022-09-16T13:36:12;27.41;46.98
64918;HTU21D;52176;44.858;38.372;2022-09-16T13:38:40;27.43;46.80
64918;HTU21D;52176;44.858;38.372;2022-09-16T13:41:08;27.51;46.77
64918;HTU21D;52176;44.858;38.372;2022-09-16T13:46:12;27.74;46.36
64918;HTU21D;52176;44.858;38.372;2022-09-16T13:48:44;27.81;46.10
64918;HTU21D;52176;44.858;38.372;2022-09-16T13:51:23;27.82;46.05
64918;HTU21D;52176;44.858;38.372;2022-09-16T13:53:49;27.75;45.99
64918;HTU21D;52176;44.858;38.372;2022-09-16T14:06:30;27.08;47.22
64918;HTU21D;52176;44.858;38.372;2022-09-16T14:11:48;26.85;47.61
64918;HTU21D;52176;44.858;38.372;2022-09-16T14:14:18;26.76;47.57
64918;HTU21D;52176;44.858;38.372;2022-09-16T14:16:45;26.69;47.64
64918;HTU21D;52176;44.858;38.372;2022-09-16T14:19:17;26.62;47.82
64918;HTU21D;52176;44.858;38.372;2022-09-16T14:24:33;26.49;48.16
64918;HTU21D;52176;44.858;38.372;2022-09-16T14:26:59;26.40;48.36
64918;HTU21D;52176;44.858;38.372;2022-09-16T14:29:25;26.33;48.35
64918;HTU21D;52176;44.858;38.372;2022-09-16T14:31:54;26.26;48.15
64918;HTU21D;52176;44.858;38.372;2022-09-16T14:34:25;26.24;48.00
64918;HTU21D;52176;44.858;38.372;2022-09-16T14:36:53;26.22;48.14
64918;HTU21D;52176;44.858;38.372;2022-09-16T14:39:19;26.19;48.11
64918;HTU21D;52176;44.858;38.372;2022-09-16T14:46:41;26.03;48.26
64918;HTU21D;52176;44.858;38.372;2022-09-16T14:49:10;25.95;48.34
64918;HTU21D;52176;44.858;38.372;2022-09-16T14:51:36;25.89;48.37
64918;HTU21D;52176;44.858;38.372;2022-09-16T14:54:03;25.84;48.46
64918;HTU21D;52176;44.858;38.372;2022-09-16T14:56:29;25.80;48.47
64918;HTU21D;52176;44.858;38.372;2022-09-16T14:58:55;25.78;48.41
64918;HTU21D;52176;44.858;38.372;2022-09-16T15:01:24;25.77;48.30
64918;HTU21D;52176;44.858;38.372;2022-09-16T15:03:55;25.77;48.26
64918;HTU21D;52176;44.858;38.372;2022-09-16T15:06:23;25.73;48.14
64918;HTU21D;52176;44.858;38.372;2022-09-16T15:11:25;25.66;48.21
64918;HTU21D;52176;44.858;38.372;2022-09-16T15:13:52;25.60;48.16
64918;HTU21D;52176;44.858;38.372;2022-09-16T15:16:18;25.50;48.12
64918;HTU21D;52176;44.858;38.372;2022-09-16T15:18:52;25.43;48.21
64918;HTU21D;52176;44.858;38.372;2022-09-16T15:21:20;25.34;48.31
64918;HTU21D;52176;44.858;38.372;2022-09-16T15:23:52;25.25;48.45
64918;HTU21D;52176;44.858;38.372;2022-09-16T15:26:28;25.16;48.61
64918;HTU21D;52176;44.858;38.372;2022-09-16T15:28:57;25.06;48.69
64918;HTU21D;52176;44.858;38.372;2022-09-16T15:31:25;24.99;48.73
64918;HTU21D;52176;44.858;38.372;2022-09-16T15:33:51;24.93;48.77
64918;HTU21D;52176;44.858;38.372;2022-09-16T15:39:35;24.83;48.88
64918;HTU21D;52176;44.858;38.372;2022-09-16T15:44:29;24.69;48.98
64918;HTU21D;52176;44.858;38.372;2022-09-16T15:46:55;24.63;48.94
64918;HTU21D;52176;44.858;38.372;2022-09-16T15:49:22;24.59;48.92
64918;HTU21D;52176;44.858;38.372;2022-09-16T15:51:49;24.56;48.92
64918;HTU21D;52176;44.858;38.372;2022-09-16T15:54:17;24.49;48.97
64918;HTU21D;52176;44.858;38.372;2022-09-16T15:59:24;24.41;48.97
64918;HTU21D;52176;44.858;38.372;2022-09-16T16:01:52;24.36;48.95
64918;HTU21D;52176;44.858;38.372;2022-09-16T16:04:37;24.32;49.02
64918;HTU21D;52176;44.858;38.372;2022-09-16T16:07:04;24.29;49.07
64918;HTU21D;52176;44.858;38.372;2022-09-16T16:09:31;24.25;49.01
64918;HTU21D;52176;44.858;38.372;2022-09-16T16:12:15;24.24;49.00
64918;HTU21D;52176;44.858;38.372;2022-09-16T16:14:41;24.19;49.02
64918;HTU21D;52176;44.858;38.372;2022-09-16T16:17:09;24.16;49.02
64918;HTU21D;52176;44.858;38.372;2022-09-16T16:19:36;24.13;49.06
64918;HTU21D;52176;44.858;38.372;2022-09-16T16:22:04;24.11;49.06
64918;HTU21D;52176;44.858;38.372;2022-09-16T16:24:29;24.10;49.07
64918;HTU21D;52176;44.858;38.372;2022-09-16T16:26:55;24.08;49.08
64918;HTU21D;52176;44.858;38.372;2022-09-16T16:29:21;24.06;48.95
64918;HTU21D;52176;44.858;38.372;2022-09-16T16:32:00;24.05;48.87
64918;HTU21D;52176;44.858;38.372;2022-09-16T16:34:26;24.06;48.79
64918;HTU21D;52176;44.858;38.372;2022-09-16T16:36:53;24.06;48.72
64918;HTU21D;52176;44.858;38.372;2022-09-16T16:39:19;24.08;48.61
64918;HTU21D;52176;44.858;38.372;2022-09-16T16:41:45;24.09;48.55
64918;HTU21D;52176;44.858;38.372;2022-09-16T16:44:11;24.11;48.50
64918;HTU21D;52176;44.858;38.372;2022-09-16T16:46:37;24.12;48.49
64918;HTU21D;52176;44.858;38.372;2022-09-16T16:49:03;24.12;48.59
64918;HTU21D;52176;44.858;38.372;2022-09-16T16:51:29;24.10;48.55
64918;HTU21D;52176;44.858;38.372;2022-09-16T16:53:55;24.09;48.60
64918;HTU21D;52176;44.858;38.372;2022-09-16T16:56:21;24.10;48.68
64918;HTU21D;52176;44.858;38.372;2022-09-16T16:58:47;24.10;48.80
64918;HTU21D;52176;44.858;38.372;2022-09-16T17:01:17;24.10;48.89
64918;HTU21D;52176;44.858;38.372;2022-09-16T17:03:43;24.11;48.99
64918;HTU21D;52176;44.858;38.372;2022-09-16T17:06:11;24.10;49.09
64918;HTU21D;52176;44.858;38.372;2022-09-16T17:08:36;24.08;49.14
64918;HTU21D;52176;44.858;38.372;2022-09-16T17:11:16;24.06;49.21
64918;HTU21D;52176;44.858;38.372;2022-09-16T17:13:43;24.01;49.32
64918;HTU21D;52176;44.858;38.372;2022-09-16T17:16:09;23.98;49.38
64918;HTU21D;52176;44.858;38.372;2022-09-16T17:18:36;23.94;49.43
64918;HTU21D;52176;44.858;38.372;2022-09-16T17:21:09;23.90;49.52
64918;HTU21D;52176;44.858;38.372;2022-09-16T17:23:35;23.86;49.47
64918;HTU21D;52176;44.858;38.372;2022-09-16T17:26:01;23.85;49.48
64918;HTU21D;52176;44.858;38.372;2022-09-16T17:28:28;23.83;49.44
64918;HTU21D;52176;44.858;38.372;2022-09-16T17:30:54;23.83;49.29
64918;HTU21D;52176;44.858;38.372;2022-09-16T17:33:20;23.87;49.11
64918;HTU21D;52176;44.858;38.372;2022-09-16T17:35:46;23.91;49.05
64918;HTU21D;52176;44.858;38.372;2022-09-16T17:38:12;23.95;49.03
64918;HTU21D;52176;44.858;38.372;2022-09-16T17:40:38;23.92;48.99
64918;HTU21D;52176;44.858;38.372;2022-09-16T17:43:04;23.90;48.90
64918;HTU21D;52176;44.858;38.372;2022-09-16T17:45:33;23.90;48.87
64918;HTU21D;52176;44.858;38.372;2022-09-16T17:47:59;23.86;48.71
64918;HTU21D;52176;44.858;38.372;2022-09-16T17:50:25;23.84;48.65
64918;HTU21D;52176;44.858;38.372;2022-09-16T17:52:51;23.84;48.46
64918;HTU21D;52176;44.858;38.372;2022-09-16T17:55:17;23.84;48.25
64918;HTU21D;52176;44.858;38.372;2022-09-16T17:57:43;23.85;48.05
64918;HTU21D;52176;44.858;38.372;2022-09-16T18:00:09;23.86;47.99
64918;HTU21D;52176;44.858;38.372;2022-09-16T18:02:38;23.84;47.90
64918;HTU21D;52176;44.858;38.372;2022-09-16T18:05:04;23.81;47.76
64918;HTU21D;52176;44.858;38.372;2022-09-16T18:07:30;23.82;47.60
64918;HTU21D;52176;44.858;38.372;2022-09-16T18:09:56;23.84;47.48
64918;HTU21D;52176;44.858;38.372;2022-09-16T18:12:21;23.83;47.50
64918;HTU21D;52176;44.858;38.372;2022-09-16T18:14:47;23.85;47.49
64918;HTU21D;52176;44.858;38.372;2022-09-16T18:17:13;23.84;47.50
64918;HTU21D;52176;44.858;38.372;2022-09-16T18:19:39;23.83;47.51
64918;HTU21D;52176;44.858;38.372;2022-09-16T18:22:06;23.84;47.47
64918;HTU21D;52176;44.858;38.372;2022-09-16T18:24:31;23.89;47.50
64918;HTU21D;52176;44.858;38.372;2022-09-16T18:26:58;23.92;47.54
64918;HTU21D;52176;44.858;38.372;2022-09-16T18:29:24;23.96;47.57
64918;HTU21D;52176;44.858;38.372;2022-09-16T18:31:49;23.98;47.70
64918;HTU21D;52176;44.858;38.372;2022-09-16T18:34:17;24.00;47.79